sensor_id;sensor_type;location;lat;lon;timestamp;P1;durP1;ratioP1;P2;durP2;ratioP2
33902;SDS011;20194;50.950;5.346;2024-02-26T00:01:31;1.75;;;1.20;;
33902;SDS011;20194;50.950;5.346;2024-02-26T00:03:59;3.42;;;1.63;;
33902;SDS011;20194;50.950;5.346;2024-02-26T00:06:24;4.82;;;1.38;;
33902;SDS011;20194;50.950;5.346;2024-02-26T00:08:50;2.95;;;1.35;;
33902;SDS011;20194;50.950;5.346;2024-02-26T00:11:16;3.42;;;1.50;;
33902;SDS011;20194;50.950;5.346;2024-02-26T00:13:41;3.28;;;1.50;;
33902;SDS011;20194;50.950;5.346;2024-02-26T00:16:07;3.33;;;1.10;;
33902;SDS011;20194;50.950;5.346;2024-02-26T00:18:33;7.82;;;1.48;;
33902;SDS011;20194;50.950;5.346;2024-02-26T00:20:59;3.10;;;1.55;;
33902;SDS011;20194;50.950;5.346;2024-02-26T00:23:25;3.83;;;1.52;;
33902;SDS011;20194;50.950;5.346;2024-02-26T00:25:52;2.13;;;1.70;;
33902;SDS011;20194;50.950;5.346;2024-02-26T00:28:18;4.55;;;1.42;;
33902;SDS011;20194;50.950;5.346;2024-02-26T00:30:45;2.47;;;1.60;;
33902;SDS011;20194;50.950;5.346;2024-02-26T00:33:11;4.95;;;1.40;;
33902;SDS011;20194;50.950;5.346;2024-02-26T00:35:37;5.03;;;1.73;;
33902;SDS011;20194;50.950;5.346;2024-02-26T00:38:03;4.68;;;1.55;;
33902;SDS011;20194;50.950;5.346;2024-02-26T00:40:29;3.83;;;1.35;;
33902;SDS011;20194;50.950;5.346;2024-02-26T00:42:55;3.72;;;1.77;;
33902;SDS011;20194;50.950;5.346;2024-02-26T00:45:21;1.70;;;1.50;;
33902;SDS011;20194;50.950;5.346;2024-02-26T00:47:47;2.58;;;1.33;;
33902;SDS011;20194;50.950;5.346;2024-02-26T00:50:14;2.80;;;1.60;;
33902;SDS011;20194;50.950;5.346;2024-02-26T00:52:40;2.85;;;1.73;;
33902;SDS011;20194;50.950;5.346;2024-02-26T00:55:06;2.42;;;1.50;;
33902;SDS011;20194;50.950;5.346;2024-02-26T00:57:32;2.97;;;1.42;;
33902;SDS011;20194;50.950;5.346;2024-02-26T00:59:58;3.65;;;1.58;;
33902;SDS011;20194;50.950;5.346;2024-02-26T01:02:24;2.30;;;1.38;;
33902;SDS011;20194;50.950;5.346;2024-02-26T01:04:50;3.92;;;1.58;;
33902;SDS011;20194;50.950;5.346;2024-02-26T01:07:16;3.10;;;1.60;;
33902;SDS011;20194;50.950;5.346;2024-02-26T01:09:42;3.55;;;1.67;;
33902;SDS011;20194;50.950;5.346;2024-02-26T01:12:08;2.30;;;1.70;;
33902;SDS011;20194;50.950;5.346;2024-02-26T01:14:34;4.03;;;1.60;;
33902;SDS011;20194;50.950;5.346;2024-02-26T01:16:59;2.97;;;1.23;;
33902;SDS011;20194;50.950;5.346;2024-02-26T01:19:25;1.63;;;1.15;;
33902;SDS011;20194;50.950;5.346;2024-02-26T01:21:51;5.15;;;1.55;;
33902;SDS011;20194;50.950;5.346;2024-02-26T01:24:16;3.58;;;1.48;;
33902;SDS011;20194;50.950;5.346;2024-02-26T01:26:42;3.72;;;1.40;;
33902;SDS011;20194;50.950;5.346;2024-02-26T01:29:08;4.85;;;1.55;;
33902;SDS011;20194;50.950;5.346;2024-02-26T01:31:33;3.78;;;1.67;;
33902;SDS011;20194;50.950;5.346;2024-02-26T01:34:00;6.78;;;1.70;;
33902;SDS011;20194;50.950;5.346;2024-02-26T01:36:26;3.28;;;1.80;;
33902;SDS011;20194;50.950;5.346;2024-02-26T01:38:52;5.45;;;1.50;;
33902;SDS011;20194;50.950;5.346;2024-02-26T01:41:18;4.65;;;1.70;;
33902;SDS011;20194;50.950;5.346;2024-02-26T01:43:44;1.88;;;1.55;;
33902;SDS011;20194;50.950;5.346;2024-02-26T01:46:10;2.58;;;1.42;;
33902;SDS011;20194;50.950;5.346;2024-02-26T01:48:41;2.00;;;1.38;;
33902;SDS011;20194;50.950;5.346;2024-02-26T01:51:09;8.15;;;4.32;;
33902;SDS011;20194;50.950;5.346;2024-02-26T01:53:37;3.13;;;1.45;;
33902;SDS011;20194;50.950;5.346;2024-02-26T01:56:04;5.05;;;1.90;;
33902;SDS011;20194;50.950;5.346;2024-02-26T01:58:29;3.47;;;1.20;;
33902;SDS011;20194;50.950;5.346;2024-02-26T02:00:56;4.13;;;1.85;;
33902;SDS011;20194;50.950;5.346;2024-02-26T02:03:22;2.70;;;1.50;;
33902;SDS011;20194;50.950;5.346;2024-02-26T02:05:48;4.53;;;1.58;;
33902;SDS011;20194;50.950;5.346;2024-02-26T02:08:14;3.47;;;1.15;;
33902;SDS011;20194;50.950;5.346;2024-02-26T02:10:41;1.77;;;1.35;;
33902;SDS011;20194;50.950;5.346;2024-02-26T02:13:07;4.05;;;1.48;;
33902;SDS011;20194;50.950;5.346;2024-02-26T02:15:33;3.63;;;1.27;;
33902;SDS011;20194;50.950;5.346;2024-02-26T02:17:59;3.08;;;1.52;;
33902;SDS011;20194;50.950;5.346;2024-02-26T02:20:26;3.47;;;1.10;;
33902;SDS011;20194;50.950;5.346;2024-02-26T02:22:58;1.67;;;1.43;;
33902;SDS011;20194;50.950;5.346;2024-02-26T02:25:24;3.38;;;1.25;;
33902;SDS011;20194;50.950;5.346;2024-02-26T02:27:49;2.08;;;1.33;;
33902;SDS011;20194;50.950;5.346;2024-02-26T02:30:17;1.55;;;1.45;;
33902;SDS011;20194;50.950;5.346;2024-02-26T02:32:42;1.42;;;1.25;;
33902;SDS011;20194;50.950;5.346;2024-02-26T02:35:09;3.50;;;1.70;;
33902;SDS011;20194;50.950;5.346;2024-02-26T02:37:35;6.43;;;2.03;;
33902;SDS011;20194;50.950;5.346;2024-02-26T02:40:02;3.55;;;1.15;;
33902;SDS011;20194;50.950;5.346;2024-02-26T02:42:28;4.95;;;1.77;;
33902;SDS011;20194;50.950;5.346;2024-02-26T02:44:53;2.38;;;1.40;;
33902;SDS011;20194;50.950;5.346;2024-02-26T02:47:19;6.75;;;1.83;;
33902;SDS011;20194;50.950;5.346;2024-02-26T02:49:45;4.50;;;1.70;;
33902;SDS011;20194;50.950;5.346;2024-02-26T02:52:10;5.47;;;1.70;;
33902;SDS011;20194;50.950;5.346;2024-02-26T02:54:36;2.65;;;1.90;;
33902;SDS011;20194;50.950;5.346;2024-02-26T02:57:05;1.90;;;1.63;;
33902;SDS011;20194;50.950;5.346;2024-02-26T02:59:30;3.97;;;1.70;;
33902;SDS011;20194;50.950;5.346;2024-02-26T03:01:57;2.80;;;1.60;;
33902;SDS011;20194;50.950;5.346;2024-02-26T03:04:23;3.30;;;1.75;;
33902;SDS011;20194;50.950;5.346;2024-02-26T03:06:48;3.30;;;1.60;;
33902;SDS011;20194;50.950;5.346;2024-02-26T03:09:14;4.10;;;1.80;;
33902;SDS011;20194;50.950;5.346;2024-02-26T03:11:40;4.20;;;1.67;;
33902;SDS011;20194;50.950;5.346;2024-02-26T03:14:06;1.40;;;1.23;;
33902;SDS011;20194;50.950;5.346;2024-02-26T03:16:33;4.50;;;1.83;;
33902;SDS011;20194;50.950;5.346;2024-02-26T03:18:59;1.52;;;0.98;;
33902;SDS011;20194;50.950;5.346;2024-02-26T03:21:25;2.97;;;1.90;;
33902;SDS011;20194;50.950;5.346;2024-02-26T03:23:50;4.95;;;1.70;;
33902;SDS011;20194;50.950;5.346;2024-02-26T03:26:16;2.55;;;1.65;;
33902;SDS011;20194;50.950;5.346;2024-02-26T03:28:42;4.80;;;1.42;;
33902;SDS011;20194;50.950;5.346;2024-02-26T03:31:08;4.15;;;1.50;;
33902;SDS011;20194;50.950;5.346;2024-02-26T03:33:34;1.85;;;1.20;;
33902;SDS011;20194;50.950;5.346;2024-02-26T03:35:59;3.90;;;1.70;;
33902;SDS011;20194;50.950;5.346;2024-02-26T03:38:25;2.70;;;1.52;;
33902;SDS011;20194;50.950;5.346;2024-02-26T03:40:51;2.75;;;1.42;;
33902;SDS011;20194;50.950;5.346;2024-02-26T03:43:17;2.63;;;1.77;;
33902;SDS011;20194;50.950;5.346;2024-02-26T03:45:43;4.03;;;1.65;;
33902;SDS011;20194;50.950;5.346;2024-02-26T03:48:08;4.05;;;1.90;;
33902;SDS011;20194;50.950;5.346;2024-02-26T03:50:34;1.77;;;1.55;;
33902;SDS011;20194;50.950;5.346;2024-02-26T03:53:00;2.55;;;2.00;;
33902;SDS011;20194;50.950;5.346;2024-02-26T03:55:26;2.45;;;1.88;;
33902;SDS011;20194;50.950;5.346;2024-02-26T03:57:52;6.45;;;1.50;;
33902;SDS011;20194;50.950;5.346;2024-02-26T04:00:18;4.60;;;1.77;;
33902;SDS011;20194;50.950;5.346;2024-02-26T04:02:44;2.30;;;1.67;;
33902;SDS011;20194;50.950;5.346;2024-02-26T04:05:11;2.13;;;1.40;;
33902;SDS011;20194;50.950;5.346;2024-02-26T04:07:38;6.07;;;1.92;;
33902;SDS011;20194;50.950;5.346;2024-02-26T04:10:08;3.60;;;1.70;;
33902;SDS011;20194;50.950;5.346;2024-02-26T04:12:40;4.43;;;2.20;;
33902;SDS011;20194;50.950;5.346;2024-02-26T04:15:09;2.65;;;2.13;;
33902;SDS011;20194;50.950;5.346;2024-02-26T04:17:36;4.00;;;2.40;;
33902;SDS011;20194;50.950;5.346;2024-02-26T04:20:02;5.18;;;2.30;;
33902;SDS011;20194;50.950;5.346;2024-02-26T04:22:30;3.05;;;2.20;;
33902;SDS011;20194;50.950;5.346;2024-02-26T04:24:57;3.70;;;2.60;;
33902;SDS011;20194;50.950;5.346;2024-02-26T04:27:23;6.70;;;2.42;;
33902;SDS011;20194;50.950;5.346;2024-02-26T04:29:48;3.00;;;2.35;;
33902;SDS011;20194;50.950;5.346;2024-02-26T04:32:14;4.93;;;2.50;;
33902;SDS011;20194;50.950;5.346;2024-02-26T04:34:40;6.38;;;2.85;;
33902;SDS011;20194;50.950;5.346;2024-02-26T04:37:07;5.45;;;2.95;;
33902;SDS011;20194;50.950;5.346;2024-02-26T04:39:33;7.20;;;2.65;;
33902;SDS011;20194;50.950;5.346;2024-02-26T04:41:58;3.08;;;2.45;;
33902;SDS011;20194;50.950;5.346;2024-02-26T04:44:24;4.80;;;2.80;;
33902;SDS011;20194;50.950;5.346;2024-02-26T04:46:50;4.30;;;2.78;;
33902;SDS011;20194;50.950;5.346;2024-02-26T04:49:16;4.03;;;2.47;;
33902;SDS011;20194;50.950;5.346;2024-02-26T04:51:41;4.40;;;2.63;;
33902;SDS011;20194;50.950;5.346;2024-02-26T04:54:07;3.03;;;2.50;;
33902;SDS011;20194;50.950;5.346;2024-02-26T04:56:32;3.90;;;2.42;;
33902;SDS011;20194;50.950;5.346;2024-02-26T04:58:58;4.43;;;3.00;;
33902;SDS011;20194;50.950;5.346;2024-02-26T05:01:24;6.85;;;2.60;;
33902;SDS011;20194;50.950;5.346;2024-02-26T05:03:50;6.43;;;2.72;;
33902;SDS011;20194;50.950;5.346;2024-02-26T05:06:16;3.10;;;2.65;;
33902;SDS011;20194;50.950;5.346;2024-02-26T05:08:41;3.88;;;2.53;;
33902;SDS011;20194;50.950;5.346;2024-02-26T05:11:09;5.63;;;3.38;;
33902;SDS011;20194;50.950;5.346;2024-02-26T05:13:35;6.03;;;3.17;;
33902;SDS011;20194;50.950;5.346;2024-02-26T05:16:00;4.18;;;3.20;;
33902;SDS011;20194;50.950;5.346;2024-02-26T05:18:26;4.03;;;2.78;;
33902;SDS011;20194;50.950;5.346;2024-02-26T05:20:52;5.10;;;3.70;;
33902;SDS011;20194;50.950;5.346;2024-02-26T05:23:18;4.70;;;3.65;;
33902;SDS011;20194;50.950;5.346;2024-02-26T05:25:44;7.32;;;3.55;;
33902;SDS011;20194;50.950;5.346;2024-02-26T05:28:12;4.55;;;3.55;;
33902;SDS011;20194;50.950;5.346;2024-02-26T05:30:37;7.43;;;3.90;;
33902;SDS011;20194;50.950;5.346;2024-02-26T05:33:05;5.55;;;3.10;;
33902;SDS011;20194;50.950;5.346;2024-02-26T05:35:30;4.28;;;3.25;;
33902;SDS011;20194;50.950;5.346;2024-02-26T05:37:56;8.88;;;3.83;;
33902;SDS011;20194;50.950;5.346;2024-02-26T05:40:22;6.07;;;3.55;;
33902;SDS011;20194;50.950;5.346;2024-02-26T05:42:48;6.22;;;4.18;;
33902;SDS011;20194;50.950;5.346;2024-02-26T05:45:14;8.55;;;3.78;;
33902;SDS011;20194;50.950;5.346;2024-02-26T05:47:40;7.20;;;4.65;;
33902;SDS011;20194;50.950;5.346;2024-02-26T05:50:11;6.32;;;4.35;;
33902;SDS011;20194;50.950;5.346;2024-02-26T05:52:37;6.55;;;4.00;;
33902;SDS011;20194;50.950;5.346;2024-02-26T05:55:07;6.25;;;4.32;;
33902;SDS011;20194;50.950;5.346;2024-02-26T05:57:33;8.43;;;4.82;;
33902;SDS011;20194;50.950;5.346;2024-02-26T05:59:59;6.82;;;4.35;;
33902;SDS011;20194;50.950;5.346;2024-02-26T06:02:32;11.73;;;4.90;;
33902;SDS011;20194;50.950;5.346;2024-02-26T06:04:58;6.00;;;4.32;;
33902;SDS011;20194;50.950;5.346;2024-02-26T06:07:24;6.10;;;5.10;;
33902;SDS011;20194;50.950;5.346;2024-02-26T06:09:49;11.95;;;5.65;;
33902;SDS011;20194;50.950;5.346;2024-02-26T06:12:15;9.57;;;5.07;;
33902;SDS011;20194;50.950;5.346;2024-02-26T06:14:41;8.52;;;4.72;;
33902;SDS011;20194;50.950;5.346;2024-02-26T06:17:08;10.18;;;4.93;;
33902;SDS011;20194;50.950;5.346;2024-02-26T06:19:34;13.07;;;5.75;;
33902;SDS011;20194;50.950;5.346;2024-02-26T06:22:00;7.57;;;5.05;;
33902;SDS011;20194;50.950;5.346;2024-02-26T06:24:25;9.23;;;5.53;;
33902;SDS011;20194;50.950;5.346;2024-02-26T06:26:51;10.43;;;5.32;;
33902;SDS011;20194;50.950;5.346;2024-02-26T06:29:17;9.57;;;4.68;;
33902;SDS011;20194;50.950;5.346;2024-02-26T06:31:43;6.22;;;4.63;;
33902;SDS011;20194;50.950;5.346;2024-02-26T06:34:13;10.48;;;5.30;;
33902;SDS011;20194;50.950;5.346;2024-02-26T06:36:39;9.57;;;5.22;;
33902;SDS011;20194;50.950;5.346;2024-02-26T06:39:04;8.75;;;4.97;;
33902;SDS011;20194;50.950;5.346;2024-02-26T06:41:30;11.70;;;5.68;;
33902;SDS011;20194;50.950;5.346;2024-02-26T06:43:56;8.80;;;4.60;;
33902;SDS011;20194;50.950;5.346;2024-02-26T06:46:22;9.45;;;5.22;;
33902;SDS011;20194;50.950;5.346;2024-02-26T06:48:48;9.57;;;4.30;;
33902;SDS011;20194;50.950;5.346;2024-02-26T06:51:14;9.35;;;3.80;;
33902;SDS011;20194;50.950;5.346;2024-02-26T06:53:40;6.20;;;3.78;;
33902;SDS011;20194;50.950;5.346;2024-02-26T06:56:05;11.40;;;3.90;;
33902;SDS011;20194;50.950;5.346;2024-02-26T06:58:31;6.78;;;4.40;;
33902;SDS011;20194;50.950;5.346;2024-02-26T07:00:57;5.18;;;3.75;;
33902;SDS011;20194;50.950;5.346;2024-02-26T07:03:23;7.22;;;3.45;;
33902;SDS011;20194;50.950;5.346;2024-02-26T07:05:50;8.70;;;4.82;;
33902;SDS011;20194;50.950;5.346;2024-02-26T07:08:16;9.13;;;4.65;;
33902;SDS011;20194;50.950;5.346;2024-02-26T07:10:42;8.73;;;4.10;;
33902;SDS011;20194;50.950;5.346;2024-02-26T07:13:09;13.52;;;4.15;;
33902;SDS011;20194;50.950;5.346;2024-02-26T07:15:35;8.93;;;4.60;;
33902;SDS011;20194;50.950;5.346;2024-02-26T07:18:00;7.80;;;4.72;;
33902;SDS011;20194;50.950;5.346;2024-02-26T07:20:28;7.53;;;4.63;;
33902;SDS011;20194;50.950;5.346;2024-02-26T07:22:55;7.75;;;4.72;;
33902;SDS011;20194;50.950;5.346;2024-02-26T07:25:21;7.25;;;4.57;;
33902;SDS011;20194;50.950;5.346;2024-02-26T07:27:47;7.15;;;4.82;;
33902;SDS011;20194;50.950;5.346;2024-02-26T07:30:13;7.88;;;4.70;;
33902;SDS011;20194;50.950;5.346;2024-02-26T07:32:38;11.77;;;5.47;;
33902;SDS011;20194;50.950;5.346;2024-02-26T07:35:04;11.93;;;5.70;;
33902;SDS011;20194;50.950;5.346;2024-02-26T07:37:30;5.97;;;4.65;;
33902;SDS011;20194;50.950;5.346;2024-02-26T07:39:56;9.57;;;5.22;;
33902;SDS011;20194;50.950;5.346;2024-02-26T07:42:22;12.85;;;4.85;;
33902;SDS011;20194;50.950;5.346;2024-02-26T07:44:48;8.57;;;5.10;;
33902;SDS011;20194;50.950;5.346;2024-02-26T07:47:14;9.52;;;6.15;;
33902;SDS011;20194;50.950;5.346;2024-02-26T07:49:39;9.95;;;6.70;;
33902;SDS011;20194;50.950;5.346;2024-02-26T07:52:05;8.77;;;5.32;;
33902;SDS011;20194;50.950;5.346;2024-02-26T07:54:32;9.75;;;6.03;;
33902;SDS011;20194;50.950;5.346;2024-02-26T07:56:57;9.65;;;5.47;;
33902;SDS011;20194;50.950;5.346;2024-02-26T07:59:23;11.32;;;5.95;;
33902;SDS011;20194;50.950;5.346;2024-02-26T08:01:52;9.85;;;6.10;;
33902;SDS011;20194;50.950;5.346;2024-02-26T08:04:17;12.57;;;6.80;;
33902;SDS011;20194;50.950;5.346;2024-02-26T08:06:43;9.13;;;6.05;;
33902;SDS011;20194;50.950;5.346;2024-02-26T08:09:09;8.48;;;6.05;;
33902;SDS011;20194;50.950;5.346;2024-02-26T08:11:35;8.35;;;6.60;;
33902;SDS011;20194;50.950;5.346;2024-02-26T08:14:00;7.70;;;5.97;;
33902;SDS011;20194;50.950;5.346;2024-02-26T08:16:26;9.35;;;6.07;;
33902;SDS011;20194;50.950;5.346;2024-02-26T08:18:52;9.00;;;6.15;;
33902;SDS011;20194;50.950;5.346;2024-02-26T08:21:18;8.93;;;6.50;;
33902;SDS011;20194;50.950;5.346;2024-02-26T08:23:44;7.32;;;5.45;;
33902;SDS011;20194;50.950;5.346;2024-02-26T08:26:10;9.27;;;6.32;;
33902;SDS011;20194;50.950;5.346;2024-02-26T08:28:39;10.40;;;6.20;;
33902;SDS011;20194;50.950;5.346;2024-02-26T08:31:05;8.70;;;6.13;;
33902;SDS011;20194;50.950;5.346;2024-02-26T08:33:32;9.80;;;6.63;;
33902;SDS011;20194;50.950;5.346;2024-02-26T08:36:03;8.80;;;5.90;;
33902;SDS011;20194;50.950;5.346;2024-02-26T08:38:30;9.00;;;5.80;;
33902;SDS011;20194;50.950;5.346;2024-02-26T08:40:55;8.68;;;5.50;;
33902;SDS011;20194;50.950;5.346;2024-02-26T08:43:21;7.35;;;6.00;;
33902;SDS011;20194;50.950;5.346;2024-02-26T08:45:47;5.53;;;4.50;;
33902;SDS011;20194;50.950;5.346;2024-02-26T08:48:12;9.63;;;6.05;;
33902;SDS011;20194;50.950;5.346;2024-02-26T08:50:38;9.20;;;5.10;;
33902;SDS011;20194;50.950;5.346;2024-02-26T08:53:04;7.72;;;5.90;;
33902;SDS011;20194;50.950;5.346;2024-02-26T08:55:30;10.18;;;6.63;;
33902;SDS011;20194;50.950;5.346;2024-02-26T08:57:56;7.28;;;5.82;;
33902;SDS011;20194;50.950;5.346;2024-02-26T09:00:22;9.57;;;6.68;;
33902;SDS011;20194;50.950;5.346;2024-02-26T09:02:48;7.15;;;5.45;;
33902;SDS011;20194;50.950;5.346;2024-02-26T09:05:14;8.95;;;5.43;;
33902;SDS011;20194;50.950;5.346;2024-02-26T09:07:40;7.90;;;5.90;;
33902;SDS011;20194;50.950;5.346;2024-02-26T09:10:05;8.20;;;5.93;;
33902;SDS011;20194;50.950;5.346;2024-02-26T09:12:34;7.70;;;5.43;;
33902;SDS011;20194;50.950;5.346;2024-02-26T09:15:00;7.72;;;5.43;;
33902;SDS011;20194;50.950;5.346;2024-02-26T09:17:26;7.63;;;5.32;;
33902;SDS011;20194;50.950;5.346;2024-02-26T09:19:51;8.07;;;5.55;;
33902;SDS011;20194;50.950;5.346;2024-02-26T09:22:17;8.98;;;5.32;;
33902;SDS011;20194;50.950;5.346;2024-02-26T09:24:43;9.90;;;5.28;;
33902;SDS011;20194;50.950;5.346;2024-02-26T09:27:08;10.25;;;5.60;;
33902;SDS011;20194;50.950;5.346;2024-02-26T09:29:35;9.18;;;5.20;;
33902;SDS011;20194;50.950;5.346;2024-02-26T09:32:01;10.40;;;4.68;;
33902;SDS011;20194;50.950;5.346;2024-02-26T09:34:27;6.30;;;4.38;;
33902;SDS011;20194;50.950;5.346;2024-02-26T09:36:53;6.10;;;4.07;;
33902;SDS011;20194;50.950;5.346;2024-02-26T09:39:19;4.00;;;3.60;;
33902;SDS011;20194;50.950;5.346;2024-02-26T09:41:47;6.38;;;4.50;;
33902;SDS011;20194;50.950;5.346;2024-02-26T09:44:18;4.93;;;4.03;;
33902;SDS011;20194;50.950;5.346;2024-02-26T09:46:47;8.40;;;5.18;;
33902;SDS011;20194;50.950;5.346;2024-02-26T09:49:16;7.18;;;4.55;;
33902;SDS011;20194;50.950;5.346;2024-02-26T09:51:43;7.75;;;5.43;;
33902;SDS011;20194;50.950;5.346;2024-02-26T09:54:09;5.75;;;4.75;;
33902;SDS011;20194;50.950;5.346;2024-02-26T09:56:38;7.32;;;5.13;;
33902;SDS011;20194;50.950;5.346;2024-02-26T09:59:15;10.38;;;5.15;;
33902;SDS011;20194;50.950;5.346;2024-02-26T10:01:42;7.30;;;4.63;;
33902;SDS011;20194;50.950;5.346;2024-02-26T10:04:09;7.38;;;5.75;;
33902;SDS011;20194;50.950;5.346;2024-02-26T10:06:37;7.72;;;4.95;;
33902;SDS011;20194;50.950;5.346;2024-02-26T10:09:03;7.78;;;5.22;;
33902;SDS011;20194;50.950;5.346;2024-02-26T10:11:32;6.13;;;4.75;;
33902;SDS011;20194;50.950;5.346;2024-02-26T10:13:58;6.47;;;5.10;;
33902;SDS011;20194;50.950;5.346;2024-02-26T10:16:25;8.52;;;5.60;;
33902;SDS011;20194;50.950;5.346;2024-02-26T10:18:51;5.72;;;4.60;;
33902;SDS011;20194;50.950;5.346;2024-02-26T10:21:22;6.40;;;4.90;;
33902;SDS011;20194;50.950;5.346;2024-02-26T10:23:48;7.60;;;4.97;;
33902;SDS011;20194;50.950;5.346;2024-02-26T10:26:15;6.88;;;5.20;;
33902;SDS011;20194;50.950;5.346;2024-02-26T10:28:41;7.40;;;5.45;;
33902;SDS011;20194;50.950;5.346;2024-02-26T10:31:08;9.15;;;5.75;;
33902;SDS011;20194;50.950;5.346;2024-02-26T10:33:36;11.90;;;5.72;;
33902;SDS011;20194;50.950;5.346;2024-02-26T10:36:03;8.40;;;5.13;;
33902;SDS011;20194;50.950;5.346;2024-02-26T10:38:30;6.32;;;5.53;;
33902;SDS011;20194;50.950;5.346;2024-02-26T10:40:57;10.13;;;5.47;;
33902;SDS011;20194;50.950;5.346;2024-02-26T10:43:23;8.75;;;6.35;;
33902;SDS011;20194;50.950;5.346;2024-02-26T10:45:50;7.18;;;5.75;;
33902;SDS011;20194;50.950;5.346;2024-02-26T10:48:15;6.65;;;5.50;;
33902;SDS011;20194;50.950;5.346;2024-02-26T10:50:42;6.93;;;5.82;;
33902;SDS011;20194;50.950;5.346;2024-02-26T10:53:19;6.55;;;5.40;;
33902;SDS011;20194;50.950;5.346;2024-02-26T10:55:53;8.55;;;5.55;;
33902;SDS011;20194;50.950;5.346;2024-02-26T10:58:22;8.52;;;5.50;;
33902;SDS011;20194;50.950;5.346;2024-02-26T11:00:50;8.63;;;5.95;;
33902;SDS011;20194;50.950;5.346;2024-02-26T11:03:17;9.48;;;6.70;;
33902;SDS011;20194;50.950;5.346;2024-02-26T11:05:48;8.10;;;6.00;;
33902;SDS011;20194;50.950;5.346;2024-02-26T11:08:15;8.35;;;6.03;;
33902;SDS011;20194;50.950;5.346;2024-02-26T11:10:43;10.73;;;7.35;;
33902;SDS011;20194;50.950;5.346;2024-02-26T11:13:12;10.48;;;7.07;;
33902;SDS011;20194;50.950;5.346;2024-02-26T11:15:39;9.35;;;7.97;;
33902;SDS011;20194;50.950;5.346;2024-02-26T11:18:05;8.82;;;7.55;;
33902;SDS011;20194;50.950;5.346;2024-02-26T11:20:32;14.43;;;7.75;;
33902;SDS011;20194;50.950;5.346;2024-02-26T11:22:59;9.10;;;8.10;;
33902;SDS011;20194;50.950;5.346;2024-02-26T11:25:25;11.48;;;8.60;;
33902;SDS011;20194;50.950;5.346;2024-02-26T11:27:52;9.30;;;7.72;;
33902;SDS011;20194;50.950;5.346;2024-02-26T11:30:24;10.02;;;8.38;;
33902;SDS011;20194;50.950;5.346;2024-02-26T11:32:51;11.18;;;8.40;;
33902;SDS011;20194;50.950;5.346;2024-02-26T11:35:18;10.90;;;7.05;;
33902;SDS011;20194;50.950;5.346;2024-02-26T11:37:54;15.88;;;8.68;;
33902;SDS011;20194;50.950;5.346;2024-02-26T11:40:24;11.20;;;8.13;;
33902;SDS011;20194;50.950;5.346;2024-02-26T11:42:53;10.00;;;7.57;;
33902;SDS011;20194;50.950;5.346;2024-02-26T11:48:04;11.23;;;8.00;;
33902;SDS011;20194;50.950;5.346;2024-02-26T11:50:36;9.63;;;8.07;;
33902;SDS011;20194;50.950;5.346;2024-02-26T11:59:04;9.48;;;7.43;;
33902;SDS011;20194;50.950;5.346;2024-02-26T12:04:16;10.70;;;8.07;;
33902;SDS011;20194;50.950;5.346;2024-02-26T12:06:46;9.73;;;7.80;;
33902;SDS011;20194;50.950;5.346;2024-02-26T12:09:38;10.73;;;8.57;;
33902;SDS011;20194;50.950;5.346;2024-02-26T12:12:09;11.70;;;10.20;;
33902;SDS011;20194;50.950;5.346;2024-02-26T12:14:38;10.98;;;9.27;;
33902;SDS011;20194;50.950;5.346;2024-02-26T12:17:06;11.52;;;9.57;;
33902;SDS011;20194;50.950;5.346;2024-02-26T12:19:34;10.27;;;8.90;;
33902;SDS011;20194;50.950;5.346;2024-02-26T12:22:02;12.50;;;9.25;;
33902;SDS011;20194;50.950;5.346;2024-02-26T12:24:28;10.93;;;8.77;;
33902;SDS011;20194;50.950;5.346;2024-02-26T12:26:54;12.05;;;9.65;;
33902;SDS011;20194;50.950;5.346;2024-02-26T12:29:20;11.25;;;8.73;;
33902;SDS011;20194;50.950;5.346;2024-02-26T12:31:45;11.07;;;8.70;;
33902;SDS011;20194;50.950;5.346;2024-02-26T12:34:13;9.55;;;7.68;;
33902;SDS011;20194;50.950;5.346;2024-02-26T12:36:38;9.80;;;7.90;;
33902;SDS011;20194;50.950;5.346;2024-02-26T12:39:05;8.88;;;7.25;;
33902;SDS011;20194;50.950;5.346;2024-02-26T12:41:31;7.22;;;6.53;;
33902;SDS011;20194;50.950;5.346;2024-02-26T12:43:58;8.45;;;7.05;;
33902;SDS011;20194;50.950;5.346;2024-02-26T12:46:24;7.82;;;5.90;;
33902;SDS011;20194;50.950;5.346;2024-02-26T12:48:50;7.07;;;6.28;;
33902;SDS011;20194;50.950;5.346;2024-02-26T12:51:16;6.82;;;5.97;;
33902;SDS011;20194;50.950;5.346;2024-02-26T12:53:43;6.38;;;5.78;;
33902;SDS011;20194;50.950;5.346;2024-02-26T12:56:10;6.60;;;5.88;;
33902;SDS011;20194;50.950;5.346;2024-02-26T12:58:39;7.60;;;6.72;;
33902;SDS011;20194;50.950;5.346;2024-02-26T13:01:06;7.22;;;6.25;;
33902;SDS011;20194;50.950;5.346;2024-02-26T13:03:38;7.53;;;6.30;;
33902;SDS011;20194;50.950;5.346;2024-02-26T13:06:05;5.82;;;5.25;;
33902;SDS011;20194;50.950;5.346;2024-02-26T13:08:31;8.45;;;6.50;;
33902;SDS011;20194;50.950;5.346;2024-02-26T13:10:58;9.05;;;6.65;;
33902;SDS011;20194;50.950;5.346;2024-02-26T13:13:25;10.15;;;7.15;;
33902;SDS011;20194;50.950;5.346;2024-02-26T13:16:13;11.20;;;6.28;;
33902;SDS011;20194;50.950;5.346;2024-02-26T13:18:39;8.00;;;5.80;;
33902;SDS011;20194;50.950;5.346;2024-02-26T13:21:08;8.40;;;6.75;;
33902;SDS011;20194;50.950;5.346;2024-02-26T13:23:35;9.23;;;6.13;;
33902;SDS011;20194;50.950;5.346;2024-02-26T13:26:01;8.68;;;6.47;;
33902;SDS011;20194;50.950;5.346;2024-02-26T13:28:27;9.00;;;6.72;;
33902;SDS011;20194;50.950;5.346;2024-02-26T13:30:53;9.32;;;7.05;;
33902;SDS011;20194;50.950;5.346;2024-02-26T13:33:23;8.23;;;7.32;;
33902;SDS011;20194;50.950;5.346;2024-02-26T13:35:50;9.80;;;7.65;;
33902;SDS011;20194;50.950;5.346;2024-02-26T13:38:16;11.32;;;8.60;;
33902;SDS011;20194;50.950;5.346;2024-02-26T13:40:43;13.43;;;8.43;;
33902;SDS011;20194;50.950;5.346;2024-02-26T13:43:08;11.80;;;8.55;;
33902;SDS011;20194;50.950;5.346;2024-02-26T13:45:35;12.35;;;9.38;;
33902;SDS011;20194;50.950;5.346;2024-02-26T13:48:02;15.18;;;9.18;;
33902;SDS011;20194;50.950;5.346;2024-02-26T13:50:29;13.60;;;10.40;;
33902;SDS011;20194;50.950;5.346;2024-02-26T13:52:56;12.40;;;9.23;;
33902;SDS011;20194;50.950;5.346;2024-02-26T13:55:22;12.60;;;9.40;;
33902;SDS011;20194;50.950;5.346;2024-02-26T13:57:51;11.25;;;8.90;;
33902;SDS011;20194;50.950;5.346;2024-02-26T14:00:19;12.63;;;9.57;;
33902;SDS011;20194;50.950;5.346;2024-02-26T14:02:45;17.13;;;10.93;;
33902;SDS011;20194;50.950;5.346;2024-02-26T14:05:10;15.00;;;10.88;;
33902;SDS011;20194;50.950;5.346;2024-02-26T14:07:36;17.08;;;11.13;;
33902;SDS011;20194;50.950;5.346;2024-02-26T14:10:02;15.23;;;11.52;;
33902;SDS011;20194;50.950;5.346;2024-02-26T14:12:28;13.90;;;9.80;;
33902;SDS011;20194;50.950;5.346;2024-02-26T14:14:54;18.38;;;11.73;;
33902;SDS011;20194;50.950;5.346;2024-02-26T14:17:21;17.63;;;11.25;;
33902;SDS011;20194;50.950;5.346;2024-02-26T14:19:47;18.98;;;13.13;;
33902;SDS011;20194;50.950;5.346;2024-02-26T14:22:13;18.13;;;11.70;;
33902;SDS011;20194;50.950;5.346;2024-02-26T14:24:42;14.45;;;10.75;;
33902;SDS011;20194;50.950;5.346;2024-02-26T14:27:08;18.55;;;13.63;;
33902;SDS011;20194;50.950;5.346;2024-02-26T14:29:35;20.75;;;13.90;;
33902;SDS011;20194;50.950;5.346;2024-02-26T14:32:02;16.80;;;12.93;;
33902;SDS011;20194;50.950;5.346;2024-02-26T14:34:29;19.48;;;11.65;;
33902;SDS011;20194;50.950;5.346;2024-02-26T14:36:56;20.60;;;13.75;;
33902;SDS011;20194;50.950;5.346;2024-02-26T14:39:21;17.40;;;12.20;;
33902;SDS011;20194;50.950;5.346;2024-02-26T14:41:47;15.85;;;12.10;;
33902;SDS011;20194;50.950;5.346;2024-02-26T14:44:12;16.77;;;12.77;;
33902;SDS011;20194;50.950;5.346;2024-02-26T14:46:38;21.70;;;11.77;;
33902;SDS011;20194;50.950;5.346;2024-02-26T14:49:04;17.75;;;11.07;;
33902;SDS011;20194;50.950;5.346;2024-02-26T14:51:30;13.45;;;9.52;;